sensor_id;sensor_type;location;lat;lon;timestamp;P1;durP1;ratioP1;P2;durP2;ratioP2
68800;SDS011;55784;50.734;7.086;2023-03-20T00:02:28;26.65;;;9.90;;
68800;SDS011;55784;50.734;7.086;2023-03-20T00:04:58;26.63;;;10.65;;
68800;SDS011;55784;50.734;7.086;2023-03-20T00:07:32;25.33;;;10.40;;
68800;SDS011;55784;50.734;7.086;2023-03-20T00:10:27;26.48;;;10.48;;
68800;SDS011;55784;50.734;7.086;2023-03-20T00:13:04;26.65;;;10.57;;
68800;SDS011;55784;50.734;7.086;2023-03-20T00:18:40;27.67;;;10.77;;
68800;SDS011;55784;50.734;7.086;2023-03-20T00:21:15;26.02;;;9.73;;
68800;SDS011;55784;50.734;7.086;2023-03-20T00:23:56;28.65;;;11.70;;
68800;SDS011;55784;50.734;7.086;2023-03-20T00:26:45;25.60;;;10.07;;
68800;SDS011;55784;50.734;7.086;2023-03-20T00:29:28;27.90;;;11.57;;
68800;SDS011;55784;50.734;7.086;2023-03-20T00:31:58;26.23;;;10.70;;
68800;SDS011;55784;50.734;7.086;2023-03-20T00:34:34;25.80;;;10.13;;
68800;SDS011;55784;50.734;7.086;2023-03-20T00:37:09;25.77;;;10.73;;
68800;SDS011;55784;50.734;7.086;2023-03-20T00:39:48;29.15;;;10.73;;
68800;SDS011;55784;50.734;7.086;2023-03-20T00:42:31;28.40;;;11.73;;
68800;SDS011;55784;50.734;7.086;2023-03-20T00:45:07;27.15;;;10.40;;
68800;SDS011;55784;50.734;7.086;2023-03-20T00:48:03;27.52;;;10.63;;
68800;SDS011;55784;50.734;7.086;2023-03-20T00:50:46;26.20;;;10.38;;
68800;SDS011;55784;50.734;7.086;2023-03-20T00:53:26;27.83;;;10.90;;
68800;SDS011;55784;50.734;7.086;2023-03-20T00:56:39;28.52;;;11.32;;
68800;SDS011;55784;50.734;7.086;2023-03-20T00:59:36;25.75;;;10.57;;
68800;SDS011;55784;50.734;7.086;2023-03-20T01:05:05;29.05;;;11.05;;
68800;SDS011;55784;50.734;7.086;2023-03-20T01:08:27;26.67;;;9.63;;
68800;SDS011;55784;50.734;7.086;2023-03-20T01:11:03;28.02;;;11.05;;
68800;SDS011;55784;50.734;7.086;2023-03-20T01:13:42;26.20;;;10.50;;
68800;SDS011;55784;50.734;7.086;2023-03-20T01:16:25;25.80;;;9.40;;
68800;SDS011;55784;50.734;7.086;2023-03-20T01:19:12;25.98;;;10.63;;
68800;SDS011;55784;50.734;7.086;2023-03-20T01:21:44;28.75;;;10.32;;
68800;SDS011;55784;50.734;7.086;2023-03-20T01:24:31;26.92;;;9.25;;
68800;SDS011;55784;50.734;7.086;2023-03-20T01:30:17;23.67;;;9.32;;
68800;SDS011;55784;50.734;7.086;2023-03-20T01:32:53;25.63;;;9.45;;
68800;SDS011;55784;50.734;7.086;2023-03-20T01:35:30;22.27;;;8.95;;
68800;SDS011;55784;50.734;7.086;2023-03-20T01:38:40;22.48;;;8.35;;
68800;SDS011;55784;50.734;7.086;2023-03-20T01:41:52;23.58;;;9.13;;
68800;SDS011;55784;50.734;7.086;2023-03-20T01:47:46;25.48;;;9.23;;
68800;SDS011;55784;50.734;7.086;2023-03-20T01:50:33;24.77;;;9.30;;
68800;SDS011;55784;50.734;7.086;2023-03-20T01:53:08;24.20;;;8.98;;
68800;SDS011;55784;50.734;7.086;2023-03-20T01:55:40;23.60;;;9.05;;
68800;SDS011;55784;50.734;7.086;2023-03-20T01:58:23;20.92;;;7.90;;
68800;SDS011;55784;50.734;7.086;2023-03-20T02:01:02;21.75;;;8.70;;
68800;SDS011;55784;50.734;7.086;2023-03-20T02:03:31;22.65;;;8.05;;
68800;SDS011;55784;50.734;7.086;2023-03-20T02:05:57;22.27;;;8.37;;
68800;SDS011;55784;50.734;7.086;2023-03-20T02:08:27;21.27;;;7.78;;
68800;SDS011;55784;50.734;7.086;2023-03-20T02:11:00;22.20;;;7.90;;
68800;SDS011;55784;50.734;7.086;2023-03-20T02:13:32;19.80;;;7.75;;
68800;SDS011;55784;50.734;7.086;2023-03-20T02:16:03;19.65;;;7.55;;
68800;SDS011;55784;50.734;7.086;2023-03-20T02:18:44;23.27;;;7.60;;
68800;SDS011;55784;50.734;7.086;2023-03-20T02:24:42;21.85;;;7.57;;
68800;SDS011;55784;50.734;7.086;2023-03-20T02:27:37;21.30;;;7.97;;
68800;SDS011;55784;50.734;7.086;2023-03-20T02:36:36;19.63;;;7.35;;
68800;SDS011;55784;50.734;7.086;2023-03-20T02:42:44;22.92;;;7.75;;
68800;SDS011;55784;50.734;7.086;2023-03-20T02:45:39;23.25;;;8.18;;
68800;SDS011;55784;50.734;7.086;2023-03-20T02:51:56;21.45;;;7.90;;
68800;SDS011;55784;50.734;7.086;2023-03-20T02:57:18;20.40;;;7.45;;
68800;SDS011;55784;50.734;7.086;2023-03-20T03:00:11;22.17;;;7.93;;
68800;SDS011;55784;50.734;7.086;2023-03-20T03:08:48;17.30;;;6.20;;
68800;SDS011;55784;50.734;7.086;2023-03-20T03:11:16;19.90;;;7.00;;
68800;SDS011;55784;50.734;7.086;2023-03-20T03:13:46;21.42;;;7.50;;
68800;SDS011;55784;50.734;7.086;2023-03-20T03:16:29;21.90;;;7.47;;
68800;SDS011;55784;50.734;7.086;2023-03-20T03:19:04;20.70;;;7.63;;
68800;SDS011;55784;50.734;7.086;2023-03-20T03:21:39;21.20;;;7.25;;
68800;SDS011;55784;50.734;7.086;2023-03-20T03:27:00;21.92;;;7.40;;
68800;SDS011;55784;50.734;7.086;2023-03-20T03:29:32;20.53;;;6.77;;
68800;SDS011;55784;50.734;7.086;2023-03-20T03:32:04;21.73;;;7.65;;
68800;SDS011;55784;50.734;7.086;2023-03-20T03:35:05;19.05;;;7.00;;
68800;SDS011;55784;50.734;7.086;2023-03-20T03:53:48;18.92;;;6.68;;
68800;SDS011;55784;50.734;7.086;2023-03-20T03:56:03;19.85;;;7.40;;
68800;SDS011;55784;50.734;7.086;2023-03-20T03:58:33;21.53;;;7.43;;
68800;SDS011;55784;50.734;7.086;2023-03-20T04:01:03;19.27;;;6.75;;
68800;SDS011;55784;50.734;7.086;2023-03-20T04:03:41;20.00;;;6.72;;
68800;SDS011;55784;50.734;7.086;2023-03-20T04:06:17;19.45;;;7.07;;
68800;SDS011;55784;50.734;7.086;2023-03-20T04:08:59;19.70;;;6.43;;
68800;SDS011;55784;50.734;7.086;2023-03-20T04:11:25;21.23;;;7.00;;
68800;SDS011;55784;50.734;7.086;2023-03-20T04:14:00;21.52;;;7.40;;
68800;SDS011;55784;50.734;7.086;2023-03-20T04:16:35;21.73;;;7.25;;
68800;SDS011;55784;50.734;7.086;2023-03-20T04:19:06;20.73;;;7.53;;
68800;SDS011;55784;50.734;7.086;2023-03-20T04:21:31;19.43;;;7.13;;
68800;SDS011;55784;50.734;7.086;2023-03-20T04:24:00;21.30;;;7.55;;
68800;SDS011;55784;50.734;7.086;2023-03-20T04:26:28;20.90;;;7.47;;
68800;SDS011;55784;50.734;7.086;2023-03-20T04:29:07;23.52;;;8.18;;
68800;SDS011;55784;50.734;7.086;2023-03-20T04:31:38;21.75;;;7.68;;
68800;SDS011;55784;50.734;7.086;2023-03-20T04:34:04;20.30;;;7.25;;
68800;SDS011;55784;50.734;7.086;2023-03-20T04:36:46;25.05;;;8.07;;
68800;SDS011;55784;50.734;7.086;2023-03-20T04:39:25;21.38;;;7.32;;
68800;SDS011;55784;50.734;7.086;2023-03-20T04:42:07;21.25;;;7.63;;
68800;SDS011;55784;50.734;7.086;2023-03-20T04:44:33;23.48;;;8.80;;
68800;SDS011;55784;50.734;7.086;2023-03-20T04:46:59;22.80;;;7.87;;
68800;SDS011;55784;50.734;7.086;2023-03-20T04:49:27;21.03;;;7.97;;
68800;SDS011;55784;50.734;7.086;2023-03-20T04:52:15;22.20;;;7.70;;
68800;SDS011;55784;50.734;7.086;2023-03-20T04:54:43;21.77;;;8.35;;
68800;SDS011;55784;50.734;7.086;2023-03-20T04:57:09;22.27;;;8.20;;
68800;SDS011;55784;50.734;7.086;2023-03-20T05:02:15;20.42;;;7.30;;
68800;SDS011;55784;50.734;7.086;2023-03-20T05:04:44;21.42;;;7.50;;
68800;SDS011;55784;50.734;7.086;2023-03-20T05:07:30;19.48;;;7.03;;
68800;SDS011;55784;50.734;7.086;2023-03-20T05:10:03;20.08;;;6.97;;
68800;SDS011;55784;50.734;7.086;2023-03-20T05:12:43;20.27;;;7.68;;
68800;SDS011;55784;50.734;7.086;2023-03-20T05:15:09;18.35;;;6.78;;
68800;SDS011;55784;50.734;7.086;2023-03-20T05:17:54;20.80;;;6.78;;
68800;SDS011;55784;50.734;7.086;2023-03-20T05:20:32;18.88;;;6.68;;
68800;SDS011;55784;50.734;7.086;2023-03-20T05:23:06;20.50;;;7.13;;
68800;SDS011;55784;50.734;7.086;2023-03-20T05:25:35;18.92;;;7.03;;
68800;SDS011;55784;50.734;7.086;2023-03-20T05:28:36;19.00;;;6.80;;
68800;SDS011;55784;50.734;7.086;2023-03-20T05:31:13;17.50;;;6.30;;
68800;SDS011;55784;50.734;7.086;2023-03-20T05:33:49;18.10;;;6.35;;
68800;SDS011;55784;50.734;7.086;2023-03-20T05:36:14;19.10;;;6.90;;
68800;SDS011;55784;50.734;7.086;2023-03-20T05:38:40;20.33;;;7.23;;
68800;SDS011;55784;50.734;7.086;2023-03-20T05:41:51;18.33;;;6.60;;
68800;SDS011;55784;50.734;7.086;2023-03-20T05:43:54;20.45;;;7.13;;
68800;SDS011;55784;50.734;7.086;2023-03-20T05:46:33;18.70;;;6.57;;
68800;SDS011;55784;50.734;7.086;2023-03-20T05:49:25;19.88;;;6.70;;
68800;SDS011;55784;50.734;7.086;2023-03-20T05:52:22;18.67;;;6.82;;
68800;SDS011;55784;50.734;7.086;2023-03-20T05:54:53;17.85;;;6.75;;
68800;SDS011;55784;50.734;7.086;2023-03-20T05:57:42;19.05;;;6.85;;
68800;SDS011;55784;50.734;7.086;2023-03-20T06:00:15;17.75;;;6.13;;
68800;SDS011;55784;50.734;7.086;2023-03-20T06:02:44;18.92;;;7.05;;
68800;SDS011;55784;50.734;7.086;2023-03-20T06:05:25;20.83;;;7.28;;
68800;SDS011;55784;50.734;7.086;2023-03-20T06:08:09;19.85;;;7.20;;
68800;SDS011;55784;50.734;7.086;2023-03-20T06:10:57;21.50;;;7.50;;
68800;SDS011;55784;50.734;7.086;2023-03-20T06:14:04;21.02;;;8.10;;
68800;SDS011;55784;50.734;7.086;2023-03-20T06:16:30;21.85;;;7.50;;
68800;SDS011;55784;50.734;7.086;2023-03-20T06:22:06;20.27;;;7.47;;
68800;SDS011;55784;50.734;7.086;2023-03-20T06:24:43;20.83;;;7.30;;
68800;SDS011;55784;50.734;7.086;2023-03-20T06:27:09;22.95;;;7.35;;
68800;SDS011;55784;50.734;7.086;2023-03-20T06:29:34;20.75;;;7.07;;
68800;SDS011;55784;50.734;7.086;2023-03-20T06:31:59;20.10;;;6.90;;
68800;SDS011;55784;50.734;7.086;2023-03-20T06:34:25;21.13;;;7.10;;
68800;SDS011;55784;50.734;7.086;2023-03-20T06:36:51;22.40;;;7.60;;
68800;SDS011;55784;50.734;7.086;2023-03-20T06:39:17;20.83;;;8.03;;
68800;SDS011;55784;50.734;7.086;2023-03-20T06:41:42;19.47;;;7.03;;
68800;SDS011;55784;50.734;7.086;2023-03-20T06:44:07;21.35;;;7.47;;
68800;SDS011;55784;50.734;7.086;2023-03-20T06:46:36;22.43;;;7.30;;
68800;SDS011;55784;50.734;7.086;2023-03-20T06:49:02;21.20;;;6.50;;
68800;SDS011;55784;50.734;7.086;2023-03-20T06:51:27;22.10;;;7.80;;
68800;SDS011;55784;50.734;7.086;2023-03-20T06:53:54;18.10;;;6.90;;
68800;SDS011;55784;50.734;7.086;2023-03-20T06:56:22;19.25;;;6.35;;
68800;SDS011;55784;50.734;7.086;2023-03-20T06:58:48;17.60;;;6.27;;
68800;SDS011;55784;50.734;7.086;2023-03-20T07:01:20;15.45;;;5.57;;
68800;SDS011;55784;50.734;7.086;2023-03-20T07:03:49;16.08;;;6.40;;
68800;SDS011;55784;50.734;7.086;2023-03-20T07:06:14;18.37;;;6.00;;
68800;SDS011;55784;50.734;7.086;2023-03-20T07:08:40;16.70;;;6.27;;
68800;SDS011;55784;50.734;7.086;2023-03-20T07:11:06;14.95;;;5.43;;
68800;SDS011;55784;50.734;7.086;2023-03-20T07:13:35;13.27;;;5.18;;
68800;SDS011;55784;50.734;7.086;2023-03-20T07:16:01;17.15;;;5.97;;
68800;SDS011;55784;50.734;7.086;2023-03-20T07:18:27;16.45;;;5.50;;
68800;SDS011;55784;50.734;7.086;2023-03-20T07:20:52;15.57;;;5.43;;
68800;SDS011;55784;50.734;7.086;2023-03-20T07:23:23;15.63;;;5.75;;
68800;SDS011;55784;50.734;7.086;2023-03-20T07:25:48;16.67;;;5.60;;
68800;SDS011;55784;50.734;7.086;2023-03-20T07:28:13;17.70;;;6.00;;
68800;SDS011;55784;50.734;7.086;2023-03-20T07:30:39;17.23;;;5.90;;
68800;SDS011;55784;50.734;7.086;2023-03-20T07:33:05;15.10;;;5.82;;
68800;SDS011;55784;50.734;7.086;2023-03-20T07:35:30;13.07;;;5.00;;
68800;SDS011;55784;50.734;7.086;2023-03-20T07:37:56;14.27;;;4.90;;
68800;SDS011;55784;50.734;7.086;2023-03-20T07:40:21;15.37;;;5.57;;
68800;SDS011;55784;50.734;7.086;2023-03-20T07:42:47;13.17;;;4.30;;
68800;SDS011;55784;50.734;7.086;2023-03-20T07:45:12;15.27;;;5.20;;
68800;SDS011;55784;50.734;7.086;2023-03-20T07:47:38;13.60;;;4.80;;
68800;SDS011;55784;50.734;7.086;2023-03-20T07:50:04;12.53;;;4.43;;
68800;SDS011;55784;50.734;7.086;2023-03-20T07:52:30;12.88;;;4.90;;
68800;SDS011;55784;50.734;7.086;2023-03-20T07:54:55;12.63;;;4.75;;
68800;SDS011;55784;50.734;7.086;2023-03-20T07:57:21;13.90;;;5.20;;
68800;SDS011;55784;50.734;7.086;2023-03-20T07:59:46;12.87;;;4.43;;
68800;SDS011;55784;50.734;7.086;2023-03-20T08:02:15;11.80;;;4.30;;
68800;SDS011;55784;50.734;7.086;2023-03-20T08:04:42;11.20;;;4.40;;
68800;SDS011;55784;50.734;7.086;2023-03-20T08:07:08;12.10;;;4.28;;
68800;SDS011;55784;50.734;7.086;2023-03-20T08:09:42;12.40;;;4.30;;
68800;SDS011;55784;50.734;7.086;2023-03-20T08:16:18;12.73;;;4.40;;
68800;SDS011;55784;50.734;7.086;2023-03-20T08:18:54;12.10;;;4.30;;
68800;SDS011;55784;50.734;7.086;2023-03-20T08:25:03;12.23;;;4.57;;
68800;SDS011;55784;50.734;7.086;2023-03-20T08:38:29;12.45;;;4.40;;
68800;SDS011;55784;50.734;7.086;2023-03-20T08:41:17;11.73;;;4.00;;
68800;SDS011;55784;50.734;7.086;2023-03-20T08:53:52;9.45;;;3.35;;
68800;SDS011;55784;50.734;7.086;2023-03-20T08:57:04;9.83;;;2.90;;
68800;SDS011;55784;50.734;7.086;2023-03-20T08:59:29;8.65;;;2.30;;
68800;SDS011;55784;50.734;7.086;2023-03-20T09:01:55;13.98;;;2.80;;
68800;SDS011;55784;50.734;7.086;2023-03-20T09:04:21;10.20;;;3.20;;
68800;SDS011;55784;50.734;7.086;2023-03-20T09:06:48;8.20;;;2.87;;
68800;SDS011;55784;50.734;7.086;2023-03-20T09:09:13;8.20;;;2.70;;
68800;SDS011;55784;50.734;7.086;2023-03-20T09:11:40;9.65;;;2.47;;
68800;SDS011;55784;50.734;7.086;2023-03-20T09:14:05;7.53;;;2.47;;
68800;SDS011;55784;50.734;7.086;2023-03-20T09:16:31;8.82;;;2.30;;
68800;SDS011;55784;50.734;7.086;2023-03-20T09:18:56;8.20;;;2.30;;
68800;SDS011;55784;50.734;7.086;2023-03-20T09:21:21;8.20;;;2.20;;
68800;SDS011;55784;50.734;7.086;2023-03-20T09:23:48;6.82;;;2.22;;
68800;SDS011;55784;50.734;7.086;2023-03-20T09:26:13;9.40;;;2.40;;
68800;SDS011;55784;50.734;7.086;2023-03-20T09:28:41;6.57;;;2.17;;
68800;SDS011;55784;50.734;7.086;2023-03-20T09:31:06;7.87;;;2.63;;
68800;SDS011;55784;50.734;7.086;2023-03-20T09:33:32;8.57;;;2.93;;
68800;SDS011;55784;50.734;7.086;2023-03-20T09:35:57;9.13;;;2.40;;
68800;SDS011;55784;50.734;7.086;2023-03-20T09:38:22;7.87;;;2.77;;
68800;SDS011;55784;50.734;7.086;2023-03-20T09:40:49;10.30;;;3.20;;
68800;SDS011;55784;50.734;7.086;2023-03-20T09:48:58;8.25;;;2.85;;
68800;SDS011;55784;50.734;7.086;2023-03-20T09:51:42;9.48;;;2.95;;
68800;SDS011;55784;50.734;7.086;2023-03-20T09:56:57;8.17;;;2.77;;
68800;SDS011;55784;50.734;7.086;2023-03-20T09:59:24;9.38;;;2.67;;
68800;SDS011;55784;50.734;7.086;2023-03-20T10:01:55;10.18;;;2.90;;
68800;SDS011;55784;50.734;7.086;2023-03-20T10:04:24;8.38;;;2.90;;
68800;SDS011;55784;50.734;7.086;2023-03-20T10:06:52;9.20;;;2.70;;
68800;SDS011;55784;50.734;7.086;2023-03-20T10:26:17;9.25;;;3.00;;
68800;SDS011;55784;50.734;7.086;2023-03-20T10:28:58;11.57;;;3.30;;
68800;SDS011;55784;50.734;7.086;2023-03-20T10:42:38;10.87;;;3.10;;
68800;SDS011;55784;50.734;7.086;2023-03-20T10:45:08;9.82;;;2.80;;
68800;SDS011;55784;50.734;7.086;2023-03-20T10:47:46;9.60;;;3.10;;
68800;SDS011;55784;50.734;7.086;2023-03-20T10:50:21;11.10;;;3.20;;
68800;SDS011;55784;50.734;7.086;2023-03-20T10:52:50;8.20;;;2.90;;
68800;SDS011;55784;50.734;7.086;2023-03-20T10:55:21;8.67;;;2.87;;
68800;SDS011;55784;50.734;7.086;2023-03-20T10:57:50;9.10;;;2.80;;
68800;SDS011;55784;50.734;7.086;2023-03-20T11:00:21;8.82;;;2.95;;
68800;SDS011;55784;50.734;7.086;2023-03-20T11:02:50;7.82;;;2.88;;
68800;SDS011;55784;50.734;7.086;2023-03-20T11:05:23;7.60;;;2.80;;
68800;SDS011;55784;50.734;7.086;2023-03-20T11:08:03;7.47;;;2.58;;
68800;SDS011;55784;50.734;7.086;2023-03-20T11:10:36;10.85;;;3.78;;
68800;SDS011;55784;50.734;7.086;2023-03-20T11:16:08;8.60;;;2.80;;
68800;SDS011;55784;50.734;7.086;2023-03-20T11:18:43;7.93;;;2.45;;
68800;SDS011;55784;50.734;7.086;2023-03-20T11:21:21;7.53;;;2.27;;
68800;SDS011;55784;50.734;7.086;2023-03-20T11:23:49;8.53;;;2.50;;
68800;SDS011;55784;50.734;7.086;2023-03-20T11:26:19;7.40;;;2.45;;
68800;SDS011;55784;50.734;7.086;2023-03-20T11:28:58;8.40;;;2.10;;
68800;SDS011;55784;50.734;7.086;2023-03-20T11:31:28;7.13;;;2.00;;
68800;SDS011;55784;50.734;7.086;2023-03-20T11:36:38;8.07;;;1.80;;
68800;SDS011;55784;50.734;7.086;2023-03-20T11:39:51;7.55;;;1.83;;
68800;SDS011;55784;50.734;7.086;2023-03-20T11:42:21;7.18;;;2.20;;
68800;SDS011;55784;50.734;7.086;2023-03-20T11:44:59;8.38;;;2.40;;
68800;SDS011;55784;50.734;7.086;2023-03-20T11:47:31;7.75;;;2.10;;
68800;SDS011;55784;50.734;7.086;2023-03-20T11:50:00;7.20;;;2.10;;
68800;SDS011;55784;50.734;7.086;2023-03-20T11:52:31;9.38;;;2.42;;
68800;SDS011;55784;50.734;7.086;2023-03-20T11:55:00;7.40;;;2.08;;
68800;SDS011;55784;50.734;7.086;2023-03-20T11:57:32;12.10;;;2.60;;
68800;SDS011;55784;50.734;7.086;2023-03-20T12:02:40;13.47;;;2.63;;
68800;SDS011;55784;50.734;7.086;2023-03-20T12:14:05;13.93;;;2.72;;
68800;SDS011;55784;50.734;7.086;2023-03-20T12:16:37;7.67;;;1.83;;
68800;SDS011;55784;50.734;7.086;2023-03-20T12:19:05;5.10;;;1.50;;
68800;SDS011;55784;50.734;7.086;2023-03-20T12:21:40;6.35;;;1.50;;
68800;SDS011;55784;50.734;7.086;2023-03-20T12:24:10;6.35;;;1.50;;
68800;SDS011;55784;50.734;7.086;2023-03-20T12:29:14;7.10;;;1.37;;
68800;SDS011;55784;50.734;7.086;2023-03-20T12:32:09;5.68;;;1.17;;
68800;SDS011;55784;50.734;7.086;2023-03-20T12:34:50;6.97;;;1.08;;
68800;SDS011;55784;50.734;7.086;2023-03-20T12:37:20;6.78;;;1.33;;
68800;SDS011;55784;50.734;7.086;2023-03-20T12:39:49;5.53;;;1.13;;
68800;SDS011;55784;50.734;7.086;2023-03-20T12:45:05;4.95;;;1.10;;
68800;SDS011;55784;50.734;7.086;2023-03-20T12:47:40;5.18;;;1.02;;
68800;SDS011;55784;50.734;7.086;2023-03-20T12:50:27;6.00;;;1.35;;
68800;SDS011;55784;50.734;7.086;2023-03-20T12:58:43;5.32;;;1.10;;
68800;SDS011;55784;50.734;7.086;2023-03-20T13:01:19;5.25;;;1.00;;
68800;SDS011;55784;50.734;7.086;2023-03-20T13:04:11;4.53;;;1.08;;
68800;SDS011;55784;50.734;7.086;2023-03-20T13:20:55;6.80;;;1.23;;
68800;SDS011;55784;50.734;7.086;2023-03-20T13:23:23;6.23;;;1.20;;
68800;SDS011;55784;50.734;7.086;2023-03-20T13:29:14;4.70;;;1.00;;
68800;SDS011;55784;50.734;7.086;2023-03-20T13:34:26;6.32;;;1.75;;
68800;SDS011;55784;50.734;7.086;2023-03-20T13:37:23;5.70;;;1.03;;
68800;SDS011;55784;50.734;7.086;2023-03-20T13:46:00;6.15;;;1.20;;
68800;SDS011;55784;50.734;7.086;2023-03-20T14:02:24;5.70;;;1.35;;
68800;SDS011;55784;50.734;7.086;2023-03-20T14:04:52;6.73;;;1.37;;
68800;SDS011;55784;50.734;7.086;2023-03-20T14:07:26;7.75;;;1.70;;
68800;SDS011;55784;50.734;7.086;2023-03-20T14:09:57;5.85;;;1.30;;
68800;SDS011;55784;50.734;7.086;2023-03-20T14:13:04;6.18;;;1.25;;
68800;SDS011;55784;50.734;7.086;2023-03-20T14:15:35;5.72;;;1.10;;
68800;SDS011;55784;50.734;7.086;2023-03-20T14:18:14;9.07;;;2.03;;
68800;SDS011;55784;50.734;7.086;2023-03-20T14:20:41;4.90;;;1.30;;
68800;SDS011;55784;50.734;7.086;2023-03-20T14:23:15;6.07;;;1.10;;
68800;SDS011;55784;50.734;7.086;2023-03-20T14:25:42;6.45;;;1.30;;
68800;SDS011;55784;50.734;7.086;2023-03-20T14:35:47;5.40;;;1.20;;
68800;SDS011;55784;50.734;7.086;2023-03-20T14:38:38;5.30;;;1.10;;
68800;SDS011;55784;50.734;7.086;2023-03-20T14:41:21;5.10;;;0.95;;
68800;SDS011;55784;50.734;7.086;2023-03-20T14:48:54;7.72;;;1.50;;
68800;SDS011;55784;50.734;7.086;2023-03-20T14:51:26;6.37;;;1.20;;
68800;SDS011;55784;50.734;7.086;2023-03-20T14:56:46;11.15;;;3.22;;
68800;SDS011;55784;50.734;7.086;2023-03-20T14:59:18;8.57;;;1.92;;
68800;SDS011;55784;50.734;7.086;2023-03-20T15:03:13;6.15;;;1.48;;
68800;SDS011;55784;50.734;7.086;2023-03-20T15:05:31;8.60;;;1.80;;
68800;SDS011;55784;50.734;7.086;2023-03-20T15:12:42;7.65;;;1.50;;
68800;SDS011;55784;50.734;7.086;2023-03-20T16:09:50;6.57;;;1.53;;
68800;SDS011;55784;50.734;7.086;2023-03-20T16:12:29;7.85;;;1.80;;
68800;SDS011;55784;50.734;7.086;2023-03-20T16:15:01;9.30;;;2.10;;
68800;SDS011;55784;50.734;7.086;2023-03-20T16:23:58;7.70;;;1.50;;
68800;SDS011;55784;50.734;7.086;2023-03-20T17:39:24;11.68;;;3.70;;
68800;SDS011;55784;50.734;7.086;2023-03-20T17:41:58;13.68;;;3.83;;
68800;SDS011;55784;50.734;7.086;2023-03-20T17:44:33;11.60;;;3.10;;
68800;SDS011;55784;50.734;7.086;2023-03-20T17:47:21;8.83;;;1.93;;
68800;SDS011;55784;50.734;7.086;2023-03-20T17:50:26;7.22;;;1.60;;
68800;SDS011;55784;50.734;7.086;2023-03-20T17:52:52;10.40;;;1.60;;
68800;SDS011;55784;50.734;7.086;2023-03-20T17:55:28;7.72;;;1.67;;
68800;SDS011;55784;50.734;7.086;2023-03-20T18:03:16;8.02;;;1.70;;
68800;SDS011;55784;50.734;7.086;2023-03-20T18:10:44;8.82;;;1.77;;
68800;SDS011;55784;50.734;7.086;2023-03-20T18:13:19;7.07;;;1.70;;
68800;SDS011;55784;50.734;7.086;2023-03-20T18:24:04;8.18;;;2.20;;
68800;SDS011;55784;50.734;7.086;2023-03-20T18:26:55;6.68;;;1.77;;
68800;SDS011;55784;50.734;7.086;2023-03-20T18:30:00;7.40;;;1.65;;
68800;SDS011;55784;50.734;7.086;2023-03-20T18:34:01;7.78;;;1.50;;
68800;SDS011;55784;50.734;7.086;2023-03-20T18:36:28;7.03;;;1.70;;
68800;SDS011;55784;50.734;7.086;2023-03-20T19:10:35;6.80;;;1.80;;
68800;SDS011;55784;50.734;7.086;2023-03-20T19:13:18;6.97;;;1.50;;
68800;SDS011;55784;50.734;7.086;2023-03-20T19:16:00;7.60;;;1.70;;
68800;SDS011;55784;50.734;7.086;2023-03-20T19:18:29;7.72;;;2.03;;
68800;SDS011;55784;50.734;7.086;2023-03-20T19:27:52;7.68;;;1.38;;
68800;SDS011;55784;50.734;7.086;2023-03-20T19:34:03;7.68;;;1.60;;
68800;SDS011;55784;50.734;7.086;2023-03-20T19:36:52;6.28;;;1.42;;
68800;SDS011;55784;50.734;7.086;2023-03-20T19:39:36;5.60;;;1.30;;
68800;SDS011;55784;50.734;7.086;2023-03-20T19:42:01;6.57;;;1.40;;
68800;SDS011;55784;50.734;7.086;2023-03-20T19:44:30;6.85;;;1.70;;
68800;SDS011;55784;50.734;7.086;2023-03-20T19:47:07;6.65;;;1.67;;
68800;SDS011;55784;50.734;7.086;2023-03-20T19:49:33;8.10;;;2.00;;
68800;SDS011;55784;50.734;7.086;2023-03-20T19:52:01;8.40;;;2.30;;
68800;SDS011;55784;50.734;7.086;2023-03-20T20:21:58;6.75;;;2.03;;
68800;SDS011;55784;50.734;7.086;2023-03-20T20:35:55;6.97;;;1.70;;
68800;SDS011;55784;50.734;7.086;2023-03-20T20:38:29;6.45;;;1.70;;
68800;SDS011;55784;50.734;7.086;2023-03-20T20:41:15;6.68;;;1.85;;
68800;SDS011;55784;50.734;7.086;2023-03-20T20:43:44;7.82;;;2.10;;
68800;SDS011;55784;50.734;7.086;2023-03-20T20:46:12;8.70;;;2.00;;
68800;SDS011;55784;50.734;7.086;2023-03-20T20:48:39;7.43;;;1.70;;
68800;SDS011;55784;50.734;7.086;2023-03-20T20:51:05;7.82;;;1.77;;
68800;SDS011;55784;50.734;7.086;2023-03-20T20:53:31;11.38;;;2.67;;
68800;SDS011;55784;50.734;7.086;2023-03-20T20:55:56;6.90;;;1.77;;
68800;SDS011;55784;50.734;7.086;2023-03-20T20:58:22;7.30;;;2.30;;
68800;SDS011;55784;50.734;7.086;2023-03-20T21:00:48;8.55;;;1.88;;
68800;SDS011;55784;50.734;7.086;2023-03-20T21:03:14;8.27;;;1.80;;
68800;SDS011;55784;50.734;7.086;2023-03-20T21:05:40;6.80;;;1.80;;
68800;SDS011;55784;50.734;7.086;2023-03-20T21:08:07;7.53;;;2.00;;
68800;SDS011;55784;50.734;7.086;2023-03-20T21:10:32;10.03;;;1.90;;
68800;SDS011;55784;50.734;7.086;2023-03-20T21:12:58;7.37;;;1.60;;
68800;SDS011;55784;50.734;7.086;2023-03-20T21:15:23;5.77;;;1.50;;
68800;SDS011;55784;50.734;7.086;2023-03-20T21:17:49;8.43;;;2.22;;
68800;SDS011;55784;50.734;7.086;2023-03-20T21:20:14;7.43;;;1.90;;
68800;SDS011;55784;50.734;7.086;2023-03-20T21:22:39;7.97;;;1.80;;
68800;SDS011;55784;50.734;7.086;2023-03-20T21:25:05;7.67;;;1.87;;
68800;SDS011;55784;50.734;7.086;2023-03-20T21:27:32;7.20;;;1.73;;
68800;SDS011;55784;50.734;7.086;2023-03-20T21:29:57;7.43;;;1.80;;
68800;SDS011;55784;50.734;7.086;2023-03-20T21:32:23;6.82;;;1.77;;
68800;SDS011;55784;50.734;7.086;2023-03-20T21:34:49;8.25;;;1.70;;
68800;SDS011;55784;50.734;7.086;2023-03-20T21:45:10;8.87;;;1.73;;
68800;SDS011;55784;50.734;7.086;2023-03-20T21:47:36;7.45;;;1.63;;
68800;SDS011;55784;50.734;7.086;2023-03-20T21:50:02;6.43;;;1.92;;
68800;SDS011;55784;50.734;7.086;2023-03-20T21:52:30;5.70;;;1.50;;
68800;SDS011;55784;50.734;7.086;2023-03-20T21:54:59;7.38;;;1.70;;
68800;SDS011;55784;50.734;7.086;2023-03-20T21:57:25;6.80;;;1.70;;
68800;SDS011;55784;50.734;7.086;2023-03-20T21:59:51;7.47;;;1.70;;
68800;SDS011;55784;50.734;7.086;2023-03-20T22:02:18;6.03;;;1.60;;
68800;SDS011;55784;50.734;7.086;2023-03-20T22:04:44;7.28;;;1.63;;
68800;SDS011;55784;50.734;7.086;2023-03-20T22:07:09;5.97;;;1.55;;
68800;SDS011;55784;50.734;7.086;2023-03-20T22:09:34;6.88;;;1.67;;
68800;SDS011;55784;50.734;7.086;2023-03-20T22:12:00;6.37;;;1.73;;
68800;SDS011;55784;50.734;7.086;2023-03-20T22:14:26;5.13;;;1.60;;
68800;SDS011;55784;50.734;7.086;2023-03-20T22:16:51;5.32;;;1.50;;
68800;SDS011;55784;50.734;7.086;2023-03-20T22:19:16;5.97;;;1.60;;
68800;SDS011;55784;50.734;7.086;2023-03-20T22:21:44;7.80;;;1.80;;
68800;SDS011;55784;50.734;7.086;2023-03-20T22:24:10;5.90;;;1.50;;
68800;SDS011;55784;50.734;7.086;2023-03-20T22:26:36;6.85;;;1.60;;
68800;SDS011;55784;50.734;7.086;2023-03-20T22:29:01;10.20;;;1.90;;
68800;SDS011;55784;50.734;7.086;2023-03-20T22:31:27;7.68;;;1.55;;
68800;SDS011;55784;50.734;7.086;2023-03-20T22:33:52;6.97;;;1.70;;
68800;SDS011;55784;50.734;7.086;2023-03-20T22:36:18;7.87;;;1.67;;
68800;SDS011;55784;50.734;7.086;2023-03-20T22:38:43;7.03;;;1.70;;
68800;SDS011;55784;50.734;7.086;2023-03-20T22:41:10;6.07;;;1.85;;
68800;SDS011;55784;50.734;7.086;2023-03-20T22:43:36;7.75;;;1.60;;
68800;SDS011;55784;50.734;7.086;2023-03-20T22:46:02;8.63;;;1.90;;
68800;SDS011;55784;50.734;7.086;2023-03-20T22:48:27;6.43;;;1.60;;
68800;SDS011;55784;50.734;7.086;2023-03-20T22:50:53;6.37;;;1.63;;
68800;SDS011;55784;50.734;7.086;2023-03-20T22:53:18;8.25;;;2.10;;
68800;SDS011;55784;50.734;7.086;2023-03-20T22:55:44;8.48;;;1.75;;
68800;SDS011;55784;50.734;7.086;2023-03-20T22:58:11;7.85;;;1.80;;